Accueil
METAR-TAF:

METAR-TAF

Aéroports :

Bückeburg, Allemagne

latitude: 52-17N, longitude: 009-05E, altitude: 70 m

Observation

Le bulletin a été fait il y a 45 minutes, à 19:20 UTC
Vent 4 kt de sud
Température 16°C
Humidité 68%
Pression 1016 hPa
Visibilité 10 km ou plus
Quelques nuages à une hauteur de 3500 ft

METAR: ETHB 041920Z 18004KT 9999 FEW035 16/10 Q1016 BLACKBLU+

Heure: 22:05 (20:05 UTC)

Prévision

Le bulletin a été fait il y a 6 heures et 43 minutes, à 13:22 UTC
Prévision valable du 04 à 14 UTC au 04 à 23 UTC
Vent 7 kt de ouest/nord-ouest
Visibilité 10 km ou plus
Nuages épars à une hauteur de 3500 ft

TAF: ETHB 041322Z 0414/0423 30007KT 9999 NSW SCT035

Observations et prévisions météorologiques de plus de 4000 aéroports (messages METAR et TAF).

Les stations disponibles sont représentées par des disques jaunes et rouges sur la carte.

Passer la souris dessus pour voir le nom de la station.

Cliquer dessus pour voir les observations et prévisions météorologiques.

Pour changer de carte: cliquez sur les boutons verts avec une croix noire pour zoomer, sur le bouton vert avec un tiret pour effectuer un zoom arrière, ou sur les flèches vertes pour les cartes adjacentes.


METAR-TAF: